sensor_id;sensor_type;location;lat;lon;timestamp;temperature;humidity
66312;HTU21D;53114;51.138;6.008;2023-08-07T00:00:50;14.53;118.99
66312;HTU21D;53114;51.138;6.008;2023-08-07T00:03:16;14.50;118.99
66312;HTU21D;53114;51.138;6.008;2023-08-07T00:05:45;14.45;118.99
66312;HTU21D;53114;51.138;6.008;2023-08-07T00:08:12;14.42;118.99
66312;HTU21D;53114;51.138;6.008;2023-08-07T00:10:38;14.37;118.99
66312;HTU21D;53114;51.138;6.008;2023-08-07T00:13:04;14.35;118.99
66312;HTU21D;53114;51.138;6.008;2023-08-07T00:15:30;14.35;118.99
66312;HTU21D;53114;51.138;6.008;2023-08-07T00:17:59;14.34;118.99
66312;HTU21D;53114;51.138;6.008;2023-08-07T00:20:25;14.32;118.99
66312;HTU21D;53114;51.138;6.008;2023-08-07T00:22:51;14.29;118.99
66312;HTU21D;53114;51.138;6.008;2023-08-07T00:25:17;14.29;118.99
66312;HTU21D;53114;51.138;6.008;2023-08-07T00:27:43;14.27;118.99
66312;HTU21D;53114;51.138;6.008;2023-08-07T00:30:10;14.28;118.99
66312;HTU21D;53114;51.138;6.008;2023-08-07T00:32:36;14.27;118.99
66312;HTU21D;53114;51.138;6.008;2023-08-07T00:35:02;14.28;118.99
66312;HTU21D;53114;51.138;6.008;2023-08-07T00:37:30;14.26;118.99
66312;HTU21D;53114;51.138;6.008;2023-08-07T00:39:56;14.27;118.99
66312;HTU21D;53114;51.138;6.008;2023-08-07T00:42:22;14.25;118.99
66312;HTU21D;53114;51.138;6.008;2023-08-07T00:44:48;14.26;118.99
66312;HTU21D;53114;51.138;6.008;2023-08-07T00:47:14;14.26;118.99
66312;HTU21D;53114;51.138;6.008;2023-08-07T00:49:40;14.26;118.99
66312;HTU21D;53114;51.138;6.008;2023-08-07T00:52:07;14.25;118.99
66312;HTU21D;53114;51.138;6.008;2023-08-07T00:54:33;14.25;118.99
66312;HTU21D;53114;51.138;6.008;2023-08-07T00:57:10;14.23;118.99
66312;HTU21D;53114;51.138;6.008;2023-08-07T00:59:38;14.24;118.99
66312;HTU21D;53114;51.138;6.008;2023-08-07T01:02:05;14.23;118.99
66312;HTU21D;53114;51.138;6.008;2023-08-07T01:04:31;14.23;118.99
66312;HTU21D;53114;51.138;6.008;2023-08-07T01:06:58;14.23;118.99
66312;HTU21D;53114;51.138;6.008;2023-08-07T01:09:25;14.22;118.99
66312;HTU21D;53114;51.138;6.008;2023-08-07T01:12:08;14.24;118.99
66312;HTU21D;53114;51.138;6.008;2023-08-07T01:14:51;14.25;118.99
66312;HTU21D;53114;51.138;6.008;2023-08-07T01:17:21;14.24;118.99
66312;HTU21D;53114;51.138;6.008;2023-08-07T01:19:52;14.24;118.99
66312;HTU21D;53114;51.138;6.008;2023-08-07T01:22:19;14.26;118.99
66312;HTU21D;53114;51.138;6.008;2023-08-07T01:24:47;14.29;118.99
66312;HTU21D;53114;51.138;6.008;2023-08-07T01:29:59;14.32;118.99
66312;HTU21D;53114;51.138;6.008;2023-08-07T01:32:47;14.32;118.99
66312;HTU21D;53114;51.138;6.008;2023-08-07T01:35:16;14.35;118.99
66312;HTU21D;53114;51.138;6.008;2023-08-07T01:37:45;14.35;118.99
66312;HTU21D;53114;51.138;6.008;2023-08-07T01:40:13;14.38;118.99
66312;HTU21D;53114;51.138;6.008;2023-08-07T01:42:40;14.40;118.99
66312;HTU21D;53114;51.138;6.008;2023-08-07T01:45:07;14.39;118.99
66312;HTU21D;53114;51.138;6.008;2023-08-07T01:47:34;14.40;118.99
66312;HTU21D;53114;51.138;6.008;2023-08-07T01:50:00;14.43;118.99
66312;HTU21D;53114;51.138;6.008;2023-08-07T01:52:26;14.44;118.99
66312;HTU21D;53114;51.138;6.008;2023-08-07T01:54:53;14.48;118.99
66312;HTU21D;53114;51.138;6.008;2023-08-07T01:57:19;14.47;118.99
66312;HTU21D;53114;51.138;6.008;2023-08-07T01:59:46;14.48;118.99
66312;HTU21D;53114;51.138;6.008;2023-08-07T02:02:12;14.49;118.99
66312;HTU21D;53114;51.138;6.008;2023-08-07T02:04:37;14.50;118.99
66312;HTU21D;53114;51.138;6.008;2023-08-07T02:07:04;14.50;118.99
66312;HTU21D;53114;51.138;6.008;2023-08-07T02:09:30;14.50;118.99
66312;HTU21D;53114;51.138;6.008;2023-08-07T02:11:55;14.50;118.99
66312;HTU21D;53114;51.138;6.008;2023-08-07T02:14:21;14.51;118.99
66312;HTU21D;53114;51.138;6.008;2023-08-07T02:16:47;14.53;118.99
66312;HTU21D;53114;51.138;6.008;2023-08-07T02:19:13;14.55;118.99
66312;HTU21D;53114;51.138;6.008;2023-08-07T02:21:39;14.53;118.99
66312;HTU21D;53114;51.138;6.008;2023-08-07T02:24:05;14.52;118.99
66312;HTU21D;53114;51.138;6.008;2023-08-07T02:26:31;14.50;118.99
66312;HTU21D;53114;51.138;6.008;2023-08-07T02:28:58;14.47;118.99
66312;HTU21D;53114;51.138;6.008;2023-08-07T02:31:24;14.43;118.99
66312;HTU21D;53114;51.138;6.008;2023-08-07T02:33:50;14.38;118.99
66312;HTU21D;53114;51.138;6.008;2023-08-07T02:36:16;14.33;118.99
66312;HTU21D;53114;51.138;6.008;2023-08-07T02:38:42;14.33;118.99
66312;HTU21D;53114;51.138;6.008;2023-08-07T02:41:08;14.34;118.99
66312;HTU21D;53114;51.138;6.008;2023-08-07T02:43:34;14.33;118.99
66312;HTU21D;53114;51.138;6.008;2023-08-07T02:46:00;14.34;118.99
66312;HTU21D;53114;51.138;6.008;2023-08-07T02:48:26;14.34;118.99
66312;HTU21D;53114;51.138;6.008;2023-08-07T02:50:52;14.33;118.99
66312;HTU21D;53114;51.138;6.008;2023-08-07T02:53:18;14.32;118.99
66312;HTU21D;53114;51.138;6.008;2023-08-07T02:55:44;14.30;118.99
66312;HTU21D;53114;51.138;6.008;2023-08-07T02:58:10;14.34;118.99
66312;HTU21D;53114;51.138;6.008;2023-08-07T03:00:36;14.37;118.99
66312;HTU21D;53114;51.138;6.008;2023-08-07T03:03:02;14.39;118.99
66312;HTU21D;53114;51.138;6.008;2023-08-07T03:05:29;14.40;118.99
66312;HTU21D;53114;51.138;6.008;2023-08-07T03:07:55;14.44;118.99
66312;HTU21D;53114;51.138;6.008;2023-08-07T03:10:21;14.45;118.99
66312;HTU21D;53114;51.138;6.008;2023-08-07T03:12:47;14.48;118.99
66312;HTU21D;53114;51.138;6.008;2023-08-07T03:15:13;14.50;118.99
66312;HTU21D;53114;51.138;6.008;2023-08-07T03:17:39;14.55;118.99
66312;HTU21D;53114;51.138;6.008;2023-08-07T03:20:05;14.56;118.99
66312;HTU21D;53114;51.138;6.008;2023-08-07T03:22:32;14.56;118.99
66312;HTU21D;53114;51.138;6.008;2023-08-07T03:24:58;14.55;118.99
66312;HTU21D;53114;51.138;6.008;2023-08-07T03:27:24;14.56;118.99
66312;HTU21D;53114;51.138;6.008;2023-08-07T03:29:50;14.55;118.99
66312;HTU21D;53114;51.138;6.008;2023-08-07T03:32:17;14.55;118.99
66312;HTU21D;53114;51.138;6.008;2023-08-07T03:34:43;14.53;118.99
66312;HTU21D;53114;51.138;6.008;2023-08-07T03:37:10;14.50;118.99
66312;HTU21D;53114;51.138;6.008;2023-08-07T03:39:36;14.47;118.99
66312;HTU21D;53114;51.138;6.008;2023-08-07T03:42:02;14.44;118.99
66312;HTU21D;53114;51.138;6.008;2023-08-07T03:44:29;14.41;118.99
66312;HTU21D;53114;51.138;6.008;2023-08-07T03:46:55;14.38;118.99
66312;HTU21D;53114;51.138;6.008;2023-08-07T03:49:23;14.35;118.99
66312;HTU21D;53114;51.138;6.008;2023-08-07T03:51:51;14.33;118.99
66312;HTU21D;53114;51.138;6.008;2023-08-07T03:54:17;14.33;118.99
66312;HTU21D;53114;51.138;6.008;2023-08-07T03:56:43;14.29;118.99
66312;HTU21D;53114;51.138;6.008;2023-08-07T03:59:09;14.24;118.99
66312;HTU21D;53114;51.138;6.008;2023-08-07T04:01:36;14.23;118.99
66312;HTU21D;53114;51.138;6.008;2023-08-07T04:04:02;14.23;118.99
66312;HTU21D;53114;51.138;6.008;2023-08-07T04:06:29;14.22;118.99
66312;HTU21D;53114;51.138;6.008;2023-08-07T04:08:55;14.20;118.99
66312;HTU21D;53114;51.138;6.008;2023-08-07T04:11:21;14.20;118.99
66312;HTU21D;53114;51.138;6.008;2023-08-07T04:13:49;14.18;118.99
66312;HTU21D;53114;51.138;6.008;2023-08-07T04:16:16;14.18;118.99
66312;HTU21D;53114;51.138;6.008;2023-08-07T04:18:42;14.19;118.99
66312;HTU21D;53114;51.138;6.008;2023-08-07T04:21:08;14.17;118.99
66312;HTU21D;53114;51.138;6.008;2023-08-07T04:23:34;14.17;118.99
66312;HTU21D;53114;51.138;6.008;2023-08-07T04:26:01;14.17;118.99
66312;HTU21D;53114;51.138;6.008;2023-08-07T04:28:30;14.17;118.99
66312;HTU21D;53114;51.138;6.008;2023-08-07T04:30:56;14.14;118.99
66312;HTU21D;53114;51.138;6.008;2023-08-07T04:33:22;14.13;118.99
66312;HTU21D;53114;51.138;6.008;2023-08-07T04:35:48;14.15;118.99
66312;HTU21D;53114;51.138;6.008;2023-08-07T04:38:15;14.13;118.99
66312;HTU21D;53114;51.138;6.008;2023-08-07T04:40:48;14.08;118.99
66312;HTU21D;53114;51.138;6.008;2023-08-07T04:43:16;14.13;118.99
66312;HTU21D;53114;51.138;6.008;2023-08-07T04:45:43;14.14;118.99
66312;HTU21D;53114;51.138;6.008;2023-08-07T04:48:11;14.14;118.99
66312;HTU21D;53114;51.138;6.008;2023-08-07T04:50:38;14.18;118.99
66312;HTU21D;53114;51.138;6.008;2023-08-07T04:53:04;14.20;118.99
66312;HTU21D;53114;51.138;6.008;2023-08-07T04:55:31;14.21;118.99
66312;HTU21D;53114;51.138;6.008;2023-08-07T04:57:58;14.19;118.99
66312;HTU21D;53114;51.138;6.008;2023-08-07T05:00:24;14.22;118.99
66312;HTU21D;53114;51.138;6.008;2023-08-07T05:02:51;14.21;118.99
66312;HTU21D;53114;51.138;6.008;2023-08-07T05:05:17;14.22;118.99
66312;HTU21D;53114;51.138;6.008;2023-08-07T05:07:47;14.25;118.99
66312;HTU21D;53114;51.138;6.008;2023-08-07T05:10:13;14.25;118.99
66312;HTU21D;53114;51.138;6.008;2023-08-07T05:12:40;14.25;118.99
66312;HTU21D;53114;51.138;6.008;2023-08-07T05:15:06;14.27;118.99
66312;HTU21D;53114;51.138;6.008;2023-08-07T05:17:32;14.29;118.99
66312;HTU21D;53114;51.138;6.008;2023-08-07T05:19:58;14.28;118.99
66312;HTU21D;53114;51.138;6.008;2023-08-07T05:22:24;14.32;118.99
66312;HTU21D;53114;51.138;6.008;2023-08-07T05:24:50;14.32;118.99
66312;HTU21D;53114;51.138;6.008;2023-08-07T05:27:16;14.33;118.99
66312;HTU21D;53114;51.138;6.008;2023-08-07T05:29:42;14.37;118.99
66312;HTU21D;53114;51.138;6.008;2023-08-07T05:32:12;14.39;118.99
66312;HTU21D;53114;51.138;6.008;2023-08-07T05:34:39;14.36;118.99
66312;HTU21D;53114;51.138;6.008;2023-08-07T05:37:06;14.37;118.99
66312;HTU21D;53114;51.138;6.008;2023-08-07T05:39:32;14.41;118.99
66312;HTU21D;53114;51.138;6.008;2023-08-07T05:41:58;14.42;118.99
66312;HTU21D;53114;51.138;6.008;2023-08-07T05:44:24;14.43;118.99
66312;HTU21D;53114;51.138;6.008;2023-08-07T05:46:50;14.44;118.99
66312;HTU21D;53114;51.138;6.008;2023-08-07T05:49:17;14.44;118.99
66312;HTU21D;53114;51.138;6.008;2023-08-07T05:51:43;14.44;118.99
66312;HTU21D;53114;51.138;6.008;2023-08-07T05:54:09;14.42;118.99
66312;HTU21D;53114;51.138;6.008;2023-08-07T05:56:37;14.47;118.99
66312;HTU21D;53114;51.138;6.008;2023-08-07T05:59:03;14.49;118.99
66312;HTU21D;53114;51.138;6.008;2023-08-07T06:01:29;14.51;118.99
66312;HTU21D;53114;51.138;6.008;2023-08-07T06:03:59;14.50;118.99
66312;HTU21D;53114;51.138;6.008;2023-08-07T06:06:25;14.50;118.99
66312;HTU21D;53114;51.138;6.008;2023-08-07T06:08:54;14.52;118.99
66312;HTU21D;53114;51.138;6.008;2023-08-07T06:11:21;14.50;118.99
66312;HTU21D;53114;51.138;6.008;2023-08-07T06:13:49;14.51;118.99
66312;HTU21D;53114;51.138;6.008;2023-08-07T06:16:14;14.49;118.99
66312;HTU21D;53114;51.138;6.008;2023-08-07T06:18:40;14.49;118.99
66312;HTU21D;53114;51.138;6.008;2023-08-07T06:21:06;14.51;118.99
66312;HTU21D;53114;51.138;6.008;2023-08-07T06:23:33;14.50;118.99
66312;HTU21D;53114;51.138;6.008;2023-08-07T06:25:59;14.51;118.99
66312;HTU21D;53114;51.138;6.008;2023-08-07T06:28:32;14.50;118.99
66312;HTU21D;53114;51.138;6.008;2023-08-07T06:31:04;14.54;118.99
66312;HTU21D;53114;51.138;6.008;2023-08-07T06:33:31;14.59;118.99
66312;HTU21D;53114;51.138;6.008;2023-08-07T06:35:57;14.63;118.99
66312;HTU21D;53114;51.138;6.008;2023-08-07T06:38:23;14.62;118.99
66312;HTU21D;53114;51.138;6.008;2023-08-07T06:40:49;14.65;118.99
66312;HTU21D;53114;51.138;6.008;2023-08-07T06:43:15;14.69;118.99
66312;HTU21D;53114;51.138;6.008;2023-08-07T06:45:41;14.75;118.99
66312;HTU21D;53114;51.138;6.008;2023-08-07T06:48:07;14.80;118.99
66312;HTU21D;53114;51.138;6.008;2023-08-07T06:50:33;14.88;118.99
66312;HTU21D;53114;51.138;6.008;2023-08-07T06:52:59;14.94;118.99
66312;HTU21D;53114;51.138;6.008;2023-08-07T06:55:25;15.08;118.99
66312;HTU21D;53114;51.138;6.008;2023-08-07T06:57:51;15.16;118.99
66312;HTU21D;53114;51.138;6.008;2023-08-07T07:00:17;15.19;118.99
66312;HTU21D;53114;51.138;6.008;2023-08-07T07:02:43;15.18;118.99
66312;HTU21D;53114;51.138;6.008;2023-08-07T07:05:09;15.19;118.99
66312;HTU21D;53114;51.138;6.008;2023-08-07T07:07:36;15.22;118.99
66312;HTU21D;53114;51.138;6.008;2023-08-07T07:10:02;15.25;118.99
66312;HTU21D;53114;51.138;6.008;2023-08-07T07:12:29;15.31;118.99
66312;HTU21D;53114;51.138;6.008;2023-08-07T07:14:56;15.41;118.99
66312;HTU21D;53114;51.138;6.008;2023-08-07T07:17:22;15.48;118.99
66312;HTU21D;53114;51.138;6.008;2023-08-07T07:19:47;15.53;118.99
66312;HTU21D;53114;51.138;6.008;2023-08-07T07:22:15;15.58;118.99
66312;HTU21D;53114;51.138;6.008;2023-08-07T07:24:41;15.60;118.99
66312;HTU21D;53114;51.138;6.008;2023-08-07T07:27:07;15.66;118.99
66312;HTU21D;53114;51.138;6.008;2023-08-07T07:29:33;15.71;118.99
66312;HTU21D;53114;51.138;6.008;2023-08-07T07:31:59;15.76;118.99
66312;HTU21D;53114;51.138;6.008;2023-08-07T07:34:25;15.80;118.99
66312;HTU21D;53114;51.138;6.008;2023-08-07T07:36:51;15.87;118.99
66312;HTU21D;53114;51.138;6.008;2023-08-07T07:39:19;16.00;118.99
66312;HTU21D;53114;51.138;6.008;2023-08-07T07:41:45;16.10;118.99
66312;HTU21D;53114;51.138;6.008;2023-08-07T07:44:11;16.12;118.99
66312;HTU21D;53114;51.138;6.008;2023-08-07T07:46:38;16.10;118.99
66312;HTU21D;53114;51.138;6.008;2023-08-07T07:49:04;16.13;118.99
66312;HTU21D;53114;51.138;6.008;2023-08-07T07:51:31;16.15;118.99
66312;HTU21D;53114;51.138;6.008;2023-08-07T07:53:58;16.17;118.99
66312;HTU21D;53114;51.138;6.008;2023-08-07T07:56:24;16.25;118.99
66312;HTU21D;53114;51.138;6.008;2023-08-07T07:58:53;16.31;118.99
66312;HTU21D;53114;51.138;6.008;2023-08-07T08:01:19;16.50;118.99
66312;HTU21D;53114;51.138;6.008;2023-08-07T08:03:45;16.73;118.48
66312;HTU21D;53114;51.138;6.008;2023-08-07T08:06:11;16.87;116.54
66312;HTU21D;53114;51.138;6.008;2023-08-07T08:08:38;16.96;115.16
66312;HTU21D;53114;51.138;6.008;2023-08-07T08:11:04;17.05;115.19
66312;HTU21D;53114;51.138;6.008;2023-08-07T08:13:30;17.16;114.06
66312;HTU21D;53114;51.138;6.008;2023-08-07T08:15:57;17.25;112.64
66312;HTU21D;53114;51.138;6.008;2023-08-07T08:18:23;17.38;111.92
66312;HTU21D;53114;51.138;6.008;2023-08-07T08:20:49;17.49;108.61
66312;HTU21D;53114;51.138;6.008;2023-08-07T08:23:15;17.53;104.77
66312;HTU21D;53114;51.138;6.008;2023-08-07T08:25:41;17.51;103.83
66312;HTU21D;53114;51.138;6.008;2023-08-07T08:28:07;17.50;102.30
66312;HTU21D;53114;51.138;6.008;2023-08-07T08:30:34;17.52;100.72
66312;HTU21D;53114;51.138;6.008;2023-08-07T08:33:01;17.68;98.53
66312;HTU21D;53114;51.138;6.008;2023-08-07T08:35:27;17.84;95.91
66312;HTU21D;53114;51.138;6.008;2023-08-07T08:37:53;17.98;93.86
66312;HTU21D;53114;51.138;6.008;2023-08-07T08:40:19;18.10;91.40
66312;HTU21D;53114;51.138;6.008;2023-08-07T08:42:46;18.11;89.63
66312;HTU21D;53114;51.138;6.008;2023-08-07T08:45:15;18.22;89.44
66312;HTU21D;53114;51.138;6.008;2023-08-07T08:47:42;18.28;86.86
66312;HTU21D;53114;51.138;6.008;2023-08-07T08:50:14;18.32;87.19
66312;HTU21D;53114;51.138;6.008;2023-08-07T08:52:44;18.42;86.70
66312;HTU21D;53114;51.138;6.008;2023-08-07T08:55:12;18.55;84.88
66312;HTU21D;53114;51.138;6.008;2023-08-07T08:57:39;18.74;83.24
66312;HTU21D;53114;51.138;6.008;2023-08-07T09:00:07;18.99;79.90
66312;HTU21D;53114;51.138;6.008;2023-08-07T09:02:52;19.63;78.31
66312;HTU21D;53114;51.138;6.008;2023-08-07T09:05:20;20.71;70.52
66312;HTU21D;53114;51.138;6.008;2023-08-07T09:07:48;21.37;63.82
66312;HTU21D;53114;51.138;6.008;2023-08-07T09:10:15;21.83;61.74
66312;HTU21D;53114;51.138;6.008;2023-08-07T09:13:00;22.77;59.57
66312;HTU21D;53114;51.138;6.008;2023-08-07T09:15:29;24.36;52.01
66312;HTU21D;53114;51.138;6.008;2023-08-07T09:17:58;25.17;48.53
66312;HTU21D;53114;51.138;6.008;2023-08-07T09:20:27;25.38;47.01
66312;HTU21D;53114;51.138;6.008;2023-08-07T09:22:54;25.18;47.15
66312;HTU21D;53114;51.138;6.008;2023-08-07T09:25:31;25.96;45.71
66312;HTU21D;53114;51.138;6.008;2023-08-07T09:28:01;27.04;43.72
66312;HTU21D;53114;51.138;6.008;2023-08-07T09:30:30;27.49;41.13
66312;HTU21D;53114;51.138;6.008;2023-08-07T09:33:02;27.98;40.34
66312;HTU21D;53114;51.138;6.008;2023-08-07T09:35:30;27.75;40.19
66312;HTU21D;53114;51.138;6.008;2023-08-07T09:37:57;27.31;39.91
66312;HTU21D;53114;51.138;6.008;2023-08-07T09:40:24;25.77;42.08
66312;HTU21D;53114;51.138;6.008;2023-08-07T09:42:52;24.11;45.50
66312;HTU21D;53114;51.138;6.008;2023-08-07T09:45:26;22.72;48.21
66312;HTU21D;53114;51.138;6.008;2023-08-07T09:48:00;21.72;51.75
66312;HTU21D;53114;51.138;6.008;2023-08-07T09:50:27;21.08;54.31
66312;HTU21D;53114;51.138;6.008;2023-08-07T09:52:55;20.89;56.22
66312;HTU21D;53114;51.138;6.008;2023-08-07T09:55:22;21.30;57.18
66312;HTU21D;53114;51.138;6.008;2023-08-07T09:57:49;23.44;53.11
66312;HTU21D;53114;51.138;6.008;2023-08-07T10:00:16;25.76;46.44
66312;HTU21D;53114;51.138;6.008;2023-08-07T10:02:50;27.16;41.78
66312;HTU21D;53114;51.138;6.008;2023-08-07T10:05:18;26.89;40.37
66312;HTU21D;53114;51.138;6.008;2023-08-07T10:07:45;25.49;42.00
66312;HTU21D;53114;51.138;6.008;2023-08-07T10:10:12;24.62;44.03
66312;HTU21D;53114;51.138;6.008;2023-08-07T10:12:38;23.55;45.92
66312;HTU21D;53114;51.138;6.008;2023-08-07T10:15:05;22.49;48.78
66312;HTU21D;53114;51.138;6.008;2023-08-07T10:17:33;21.85;51.34
66312;HTU21D;53114;51.138;6.008;2023-08-07T10:19:59;21.95;51.88
66312;HTU21D;53114;51.138;6.008;2023-08-07T10:22:29;22.50;51.72
66312;HTU21D;53114;51.138;6.008;2023-08-07T10:24:59;24.60;47.34
66312;HTU21D;53114;51.138;6.008;2023-08-07T10:27:30;26.48;41.97
66312;HTU21D;53114;51.138;6.008;2023-08-07T10:30:00;27.42;38.94
66312;HTU21D;53114;51.138;6.008;2023-08-07T10:32:27;26.65;38.87
66312;HTU21D;53114;51.138;6.008;2023-08-07T10:34:54;26.09;40.67
66312;HTU21D;53114;51.138;6.008;2023-08-07T10:40:13;25.93;41.68
66312;HTU21D;53114;51.138;6.008;2023-08-07T10:42:58;27.09;39.01
66312;HTU21D;53114;51.138;6.008;2023-08-07T10:45:28;27.97;37.01
66312;HTU21D;53114;51.138;6.008;2023-08-07T10:48:02;28.40;35.07
66312;HTU21D;53114;51.138;6.008;2023-08-07T10:50:49;28.09;35.34
66312;HTU21D;53114;51.138;6.008;2023-08-07T10:53:39;28.47;35.44
66312;HTU21D;53114;51.138;6.008;2023-08-07T10:56:30;29.22;34.60
66312;HTU21D;53114;51.138;6.008;2023-08-07T10:59:10;29.68;33.81
66312;HTU21D;53114;51.138;6.008;2023-08-07T11:01:41;29.24;34.19
66312;HTU21D;53114;51.138;6.008;2023-08-07T11:04:13;28.90;34.33
66312;HTU21D;53114;51.138;6.008;2023-08-07T11:06:41;28.25;35.15
66312;HTU21D;53114;51.138;6.008;2023-08-07T11:09:11;27.87;35.92
66312;HTU21D;53114;51.138;6.008;2023-08-07T11:11:45;27.43;36.59
66312;HTU21D;53114;51.138;6.008;2023-08-07T11:14:15;26.69;38.21
66312;HTU21D;53114;51.138;6.008;2023-08-07T11:16:46;25.80;39.79
66312;HTU21D;53114;51.138;6.008;2023-08-07T11:19:17;24.85;41.88
66312;HTU21D;53114;51.138;6.008;2023-08-07T11:21:44;24.00;44.04
66312;HTU21D;53114;51.138;6.008;2023-08-07T11:24:13;23.31;45.51
66312;HTU21D;53114;51.138;6.008;2023-08-07T11:26:44;22.60;46.80
66312;HTU21D;53114;51.138;6.008;2023-08-07T11:29:17;22.07;48.66
66312;HTU21D;53114;51.138;6.008;2023-08-07T11:31:44;21.77;49.71
66312;HTU21D;53114;51.138;6.008;2023-08-07T11:34:11;21.83;50.61
66312;HTU21D;53114;51.138;6.008;2023-08-07T11:36:43;22.02;50.55
66312;HTU21D;53114;51.138;6.008;2023-08-07T11:39:10;22.10;50.88
66312;HTU21D;53114;51.138;6.008;2023-08-07T11:41:37;22.29;50.89
66312;HTU21D;53114;51.138;6.008;2023-08-07T11:44:03;22.29;50.72
66312;HTU21D;53114;51.138;6.008;2023-08-07T11:46:32;22.14;51.17
66312;HTU21D;53114;51.138;6.008;2023-08-07T11:48:59;22.03;51.19
66312;HTU21D;53114;51.138;6.008;2023-08-07T11:51:27;21.93;51.59
66312;HTU21D;53114;51.138;6.008;2023-08-07T11:53:54;21.70;52.14
66312;HTU21D;53114;51.138;6.008;2023-08-07T11:56:27;21.54;53.54
66312;HTU21D;53114;51.138;6.008;2023-08-07T11:58:53;21.75;53.81
66312;HTU21D;53114;51.138;6.008;2023-08-07T12:01:21;21.88;54.36
66312;HTU21D;53114;51.138;6.008;2023-08-07T12:06:32;22.20;53.75
66312;HTU21D;53114;51.138;6.008;2023-08-07T12:08:59;21.98;53.85
66312;HTU21D;53114;51.138;6.008;2023-08-07T12:11:25;21.83;54.62
66312;HTU21D;53114;51.138;6.008;2023-08-07T12:13:52;21.90;55.04
66312;HTU21D;53114;51.138;6.008;2023-08-07T12:16:18;21.85;54.39
66312;HTU21D;53114;51.138;6.008;2023-08-07T12:18:46;21.66;54.67
66312;HTU21D;53114;51.138;6.008;2023-08-07T12:21:18;21.52;54.97
66312;HTU21D;53114;51.138;6.008;2023-08-07T12:23:45;21.58;54.95
66312;HTU21D;53114;51.138;6.008;2023-08-07T12:26:14;21.60;53.72
66312;HTU21D;53114;51.138;6.008;2023-08-07T12:28:40;21.51;54.02
66312;HTU21D;53114;51.138;6.008;2023-08-07T12:31:08;21.39;53.56
66312;HTU21D;53114;51.138;6.008;2023-08-07T12:33:34;21.29;55.00
66312;HTU21D;53114;51.138;6.008;2023-08-07T12:36:01;21.37;55.26
66312;HTU21D;53114;51.138;6.008;2023-08-07T12:38:28;21.82;54.78
66312;HTU21D;53114;51.138;6.008;2023-08-07T12:40:55;22.24;54.10
66312;HTU21D;53114;51.138;6.008;2023-08-07T12:43:21;22.49;53.32
66312;HTU21D;53114;51.138;6.008;2023-08-07T12:45:53;22.46;53.75
66312;HTU21D;53114;51.138;6.008;2023-08-07T12:48:22;22.44;54.03
66312;HTU21D;53114;51.138;6.008;2023-08-07T12:50:48;22.47;54.01
66312;HTU21D;53114;51.138;6.008;2023-08-07T12:53:14;22.43;53.75
66312;HTU21D;53114;51.138;6.008;2023-08-07T12:55:40;22.54;53.93
66312;HTU21D;53114;51.138;6.008;2023-08-07T12:58:06;22.46;53.81
66312;HTU21D;53114;51.138;6.008;2023-08-07T13:00:32;22.43;54.10
66312;HTU21D;53114;51.138;6.008;2023-08-07T13:02:59;22.63;53.31
66312;HTU21D;53114;51.138;6.008;2023-08-07T13:05:27;22.44;53.20
66312;HTU21D;53114;51.138;6.008;2023-08-07T13:07:54;22.13;53.48
66312;HTU21D;53114;51.138;6.008;2023-08-07T13:10:21;21.77;54.14
66312;HTU21D;53114;51.138;6.008;2023-08-07T13:12:49;21.47;54.86
66312;HTU21D;53114;51.138;6.008;2023-08-07T13:15:16;21.22;56.22
66312;HTU21D;53114;51.138;6.008;2023-08-07T13:17:43;21.17;56.97
66312;HTU21D;53114;51.138;6.008;2023-08-07T13:20:12;21.38;56.97
66312;HTU21D;53114;51.138;6.008;2023-08-07T13:22:41;21.80;56.43
66312;HTU21D;53114;51.138;6.008;2023-08-07T13:25:11;21.97;55.19
66312;HTU21D;53114;51.138;6.008;2023-08-07T13:27:38;22.18;54.99
66312;HTU21D;53114;51.138;6.008;2023-08-07T13:30:06;22.46;54.17
66312;HTU21D;53114;51.138;6.008;2023-08-07T13:32:33;22.73;53.30
66312;HTU21D;53114;51.138;6.008;2023-08-07T13:34:59;22.85;53.39
66312;HTU21D;53114;51.138;6.008;2023-08-07T13:37:25;22.85;53.53
66312;HTU21D;53114;51.138;6.008;2023-08-07T13:39:51;22.90;53.43
66312;HTU21D;53114;51.138;6.008;2023-08-07T13:42:19;22.90;53.47
66312;HTU21D;53114;51.138;6.008;2023-08-07T13:44:46;22.68;52.78
66312;HTU21D;53114;51.138;6.008;2023-08-07T13:47:12;22.44;52.97
66312;HTU21D;53114;51.138;6.008;2023-08-07T13:49:39;22.31;53.15
66312;HTU21D;53114;51.138;6.008;2023-08-07T13:52:05;22.26;52.36
66312;HTU21D;53114;51.138;6.008;2023-08-07T13:54:32;22.32;53.84
66312;HTU21D;53114;51.138;6.008;2023-08-07T13:56:58;22.48;53.07
66312;HTU21D;53114;51.138;6.008;2023-08-07T13:59:24;22.67;53.23
66312;HTU21D;53114;51.138;6.008;2023-08-07T14:01:50;22.93;52.59
66312;HTU21D;53114;51.138;6.008;2023-08-07T14:04:18;22.98;51.37
66312;HTU21D;53114;51.138;6.008;2023-08-07T14:06:44;22.93;50.80
66312;HTU21D;53114;51.138;6.008;2023-08-07T14:09:10;22.82;50.84
66312;HTU21D;53114;51.138;6.008;2023-08-07T14:11:37;22.62;50.96
66312;HTU21D;53114;51.138;6.008;2023-08-07T14:14:04;22.49;51.26
66312;HTU21D;53114;51.138;6.008;2023-08-07T14:16:30;22.50;51.30
66312;HTU21D;53114;51.138;6.008;2023-08-07T14:18:57;22.64;51.13
66312;HTU21D;53114;51.138;6.008;2023-08-07T14:21:24;22.81;50.92
66312;HTU21D;53114;51.138;6.008;2023-08-07T14:23:50;22.96;50.34
66312;HTU21D;53114;51.138;6.008;2023-08-07T14:26:17;23.05;49.37
66312;HTU21D;53114;51.138;6.008;2023-08-07T14:28:44;23.12;48.50
66312;HTU21D;53114;51.138;6.008;2023-08-07T14:31:10;23.20;48.38
66312;HTU21D;53114;51.138;6.008;2023-08-07T14:33:37;23.26;48.37
66312;HTU21D;53114;51.138;6.008;2023-08-07T14:36:05;23.31;48.05
66312;HTU21D;53114;51.138;6.008;2023-08-07T14:38:31;23.23;48.16
66312;HTU21D;53114;51.138;6.008;2023-08-07T14:40:58;23.06;48.50
66312;HTU21D;53114;51.138;6.008;2023-08-07T14:43:29;22.83;49.29
66312;HTU21D;53114;51.138;6.008;2023-08-07T14:45:57;22.66;49.48
66312;HTU21D;53114;51.138;6.008;2023-08-07T14:48:23;22.44;49.44
66312;HTU21D;53114;51.138;6.008;2023-08-07T14:50:50;22.21;49.66
66312;HTU21D;53114;51.138;6.008;2023-08-07T14:53:16;22.14;50.29
66312;HTU21D;53114;51.138;6.008;2023-08-07T14:55:44;22.11;50.36
66312;HTU21D;53114;51.138;6.008;2023-08-07T14:58:11;22.11;50.50
66312;HTU21D;53114;51.138;6.008;2023-08-07T15:00:37;22.16;50.56
66312;HTU21D;53114;51.138;6.008;2023-08-07T15:03:03;22.22;50.70
66312;HTU21D;53114;51.138;6.008;2023-08-07T15:05:30;22.25;50.14
66312;HTU21D;53114;51.138;6.008;2023-08-07T15:07:56;22.28;50.01
66312;HTU21D;53114;51.138;6.008;2023-08-07T15:10:22;22.34;49.87
66312;HTU21D;53114;51.138;6.008;2023-08-07T15:12:48;22.38;49.74
66312;HTU21D;53114;51.138;6.008;2023-08-07T15:15:15;22.38;49.63
66312;HTU21D;53114;51.138;6.008;2023-08-07T15:17:41;22.32;49.69